Time;durP1;ratioP1;P1;durP2;ratioP2;P2;SDS_P1;SDS_P2;PMS_P1;PMS_P2;Temp;Humidity;BMP_temperature;BMP_pressure;BME280_temperature;BME280_humidity;BME280_pressure;Samples;Min_cycle;Max_cycle;Signal;HPM_P1;HPM_P2
2023/03/25 00:04:03;;;;;;;2.83;1.70;;;;;;;7.42;100.00;95495.13;10414146;28;20287;-75
2023/03/25 00:09:03;;;;;;;3.57;1.90;;;;;;;7.32;100.00;95497.94;10397252;28;20272;-75
2023/03/25 00:14:03;;;;;;;3.27;1.50;;;;;;;7.39;100.00;95492.06;10415727;28;20552;-75
2023/03/25 00:19:05;;;;;;;5.80;1.90;;;;;;;7.40;100.00;95483.28;10414301;28;20543;-75
2023/03/25 00:24:05;;;;;;;4.37;2.07;;;;;;;7.35;100.00;95482.94;10415116;28;20687;-75
2023/03/25 00:29:06;;;;;;;4.07;1.60;;;;;;;7.22;100.00;95475.66;10414454;28;20203;-75
2023/03/25 00:34:07;;;;;;;5.03;2.23;;;;;;;6.79;100.00;95486.28;10414426;28;20683;-75
2023/03/25 00:39:08;;;;;;;5.00;2.03;;;;;;;6.89;100.00;95480.88;10396028;28;20347;-75
2023/03/25 00:44:11;;;;;;;8.77;2.33;;;;;;;6.98;100.00;95477.28;10396603;28;20279;-75
2023/03/25 00:49:11;;;;;;;9.97;3.10;;;;;;;7.11;100.00;95477.63;10413321;28;20185;-75
2023/03/25 00:54:12;;;;;;;8.87;2.20;;;;;;;7.07;100.00;95468.50;10414191;28;20185;-75
2023/03/25 00:59:12;;;;;;;4.97;2.10;;;;;;;7.18;100.00;95467.34;10413183;28;20208;-74
2023/03/25 01:04:12;;;;;;;6.00;2.10;;;;;;;7.33;100.00;95467.47;10413447;28;20188;-74
2023/03/25 01:09:15;;;;;;;7.30;2.87;;;;;;;7.37;100.00;95463.56;10412373;28;20209;-75
2023/03/25 01:14:18;;;;;;;7.37;2.40;;;;;;;7.24;100.00;95458.06;10413126;28;20263;-75
2023/03/25 01:19:19;;;;;;;7.10;2.30;;;;;;;7.21;100.00;95461.00;10412251;28;20296;-75
2023/03/25 01:24:20;;;;;;;8.87;2.77;;;;;;;7.14;100.00;95460.84;10412404;28;20184;-75
2023/03/25 01:29:21;;;;;;;8.50;2.50;;;;;;;7.11;100.00;95456.78;10412514;28;20188;-75
2023/03/25 01:34:21;;;;;;;4.93;2.10;;;;;;;7.19;100.00;95449.94;10410316;28;20242;-75
2023/03/25 01:39:22;;;;;;;6.53;2.40;;;;;;;7.20;100.00;95443.72;10411593;28;20225;-75
2023/03/25 01:44:22;;;;;;;7.23;2.17;;;;;;;7.21;100.00;95412.31;10412080;28;20193;-75
2023/03/25 01:49:28;;;;;;;6.23;2.50;;;;;;;7.28;100.00;95402.03;10409260;28;20255;-75
2023/03/25 01:54:29;;;;;;;9.77;2.40;;;;;;;7.09;100.00;95396.25;10411510;28;20219;-75
2023/03/25 01:59:30;;;;;;;6.33;2.00;;;;;;;7.22;100.00;95374.88;10408098;28;20359;-75
2023/03/25 02:04:39;;;;;;;4.90;1.90;;;;;;;7.27;99.24;95380.41;10410103;28;20319;-75
2023/03/25 02:09:39;;;;;;;7.17;2.10;;;;;;;7.36;98.47;95375.16;10411004;28;20185;-75
2023/03/25 02:14:41;;;;;;;5.50;1.90;;;;;;;7.41;98.82;95383.25;10409974;28;20668;-75
2023/03/25 02:20:18;;;;;;;7.30;2.10;;;;;;;7.42;100.00;95383.09;10410372;28;20219;-75
2023/03/25 02:25:34;;;;;;;8.53;2.20;;;;;;;7.41;100.00;95376.28;10410340;28;20738;-75
2023/03/25 02:30:45;;;;;;;5.53;2.33;;;;;;;7.37;100.00;95380.19;10392101;28;20192;-75
2023/03/25 02:35:54;;;;;;;6.87;2.00;;;;;;;7.54;100.00;95370.50;10391871;28;20196;-75
2023/03/25 02:41:03;;;;;;;3.23;2.00;;;;;;;7.54;100.00;95364.50;10408148;28;20243;-76
2023/03/25 02:46:08;;;;;;;8.97;2.13;;;;;;;7.55;100.00;95345.25;10407775;28;20204;-73
2023/03/25 02:51:14;;;;;;;3.33;1.90;;;;;;;7.36;100.00;95326.47;10407576;28;20660;-75
2023/03/25 02:56:15;;;;;;;5.57;2.10;;;;;;;7.32;100.00;95344.22;10391064;28;20332;-76
2023/03/25 03:01:16;;;;;;;3.67;1.43;;;;;;;7.36;100.00;95338.69;10390346;28;20188;-75
2023/03/25 03:06:19;;;;;;;4.43;1.20;;;;;;;7.25;100.00;95332.06;10405885;28;20323;-75
2023/03/25 03:11:34;;;;;;;5.40;1.20;;;;;;;7.30;99.24;95327.13;10388731;28;20188;-75
2023/03/25 03:16:57;;;;;;;2.70;1.30;;;;;;;7.22;100.00;95329.78;10388634;28;20607;-75
2023/03/25 03:22:01;;;;;;;6.43;1.50;;;;;;;7.17;100.00;95332.06;10390401;28;20220;-75
2023/03/25 03:27:11;;;;;;;4.50;1.57;;;;;;;7.09;100.00;95325.94;10407484;28;20588;-75
2023/03/25 03:32:14;;;;;;;5.50;1.73;;;;;;;7.03;100.00;95338.81;10392330;28;20280;-75
2023/03/25 03:37:18;;;;;;;2.03;1.00;;;;;;;7.12;100.00;95341.22;10409334;28;20700;-73
2023/03/25 03:42:27;;;;;;;1.07;0.83;;;;;;;7.04;100.00;95346.44;10391678;28;20228;-76
2023/03/25 03:47:31;;;;;;;2.27;1.10;;;;;;;7.08;99.64;95336.53;10391751;28;20189;-75
2023/03/25 03:52:36;;;;;;;2.13;1.10;;;;;;;7.01;100.00;95344.19;10408303;28;20284;-75
2023/03/25 03:57:46;;;;;;;1.93;1.20;;;;;;;7.02;100.00;95345.81;10408680;28;20213;-75
2023/03/25 04:03:05;;;;;;;2.60;1.10;;;;;;;7.05;100.00;95361.09;10398908;28;20192;-75
2023/03/25 04:08:11;;;;;;;6.73;1.20;;;;;;;7.12;100.00;95366.44;10429350;28;20183;-76
2023/03/25 04:13:14;;;;;;;2.13;1.00;;;;;;;7.12;100.00;95372.47;10446711;28;20196;-76
2023/03/25 04:18:14;;;;;;;2.47;1.33;;;;;;;7.08;100.00;95379.00;10449475;28;20779;-76
2023/03/25 04:23:15;;;;;;;4.97;1.30;;;;;;;7.04;100.00;95371.69;10453748;28;20329;-76
2023/03/25 04:28:16;;;;;;;2.03;1.20;;;;;;;7.11;100.00;95375.25;10457067;28;20558;-76
2023/03/25 04:33:19;;;;;;;2.93;1.10;;;;;;;6.96;100.00;95377.72;10457705;28;20180;-75
2023/03/25 04:38:20;;;;;;;3.23;1.20;;;;;;;6.87;100.00;95397.75;10456772;28;20708;-75
2023/03/25 04:43:20;;;;;;;2.20;1.00;;;;;;;6.76;100.00;95398.91;10456874;28;20219;-75
2023/03/25 04:48:28;;;;;;;1.40;1.03;;;;;;;6.72;100.00;95389.84;10456928;28;20583;-75
2023/03/25 04:53:29;;;;;;;4.77;0.87;;;;;;;6.63;100.00;95396.03;10439575;28;20195;-75
2023/03/25 04:58:29;;;;;;;2.60;0.90;;;;;;;6.66;100.00;95398.28;10455987;28;20303;-75
2023/03/25 05:03:34;;;;;;;6.40;0.90;;;;;;;6.75;100.00;95397.31;10456385;28;20192;-75
2023/03/25 05:08:34;;;;;;;0.70;0.70;;;;;;;6.87;100.00;95389.13;10455808;28;20241;-75
2023/03/25 05:13:34;;;;;;;1.60;1.10;;;;;;;6.93;100.00;95393.69;10455821;28;20184;-74
2023/03/25 05:18:35;;;;;;;1.90;0.97;;;;;;;6.82;100.00;95413.06;10455967;28;20269;-75
2023/03/25 05:23:35;;;;;;;2.30;0.97;;;;;;;6.72;100.00;95415.84;10437655;28;20645;-76
2023/03/25 05:28:35;;;;;;;3.53;0.87;;;;;;;6.55;100.00;95412.44;10455461;28;20637;-76
2023/03/25 05:33:42;;;;;;;0.83;0.73;;;;;;;6.52;100.00;95437.97;10454573;28;20664;-75
2023/03/25 05:38:43;;;;;;;1.40;0.80;;;;;;;6.49;100.00;95420.88;10454491;28;20224;-76
2023/03/25 05:43:49;;;;;;;2.10;0.80;;;;;;;6.38;100.00;95429.81;10437416;28;20220;-76
2023/03/25 05:48:50;;;;;;;1.13;0.80;;;;;;;6.33;100.00;95433.91;10454510;28;20970;-76
2023/03/25 05:53:50;;;;;;;2.27;0.80;;;;;;;6.39;100.00;95421.06;10454876;28;20203;-75
2023/03/25 05:58:51;;;;;;;1.70;0.70;;;;;;;6.54;100.00;95416.03;10453969;28;20295;-76
2023/03/25 06:03:51;;;;;;;0.73;0.73;;;;;;;6.51;100.00;95411.16;10454230;28;20629;-75
2023/03/25 06:08:52;;;;;;;0.83;0.80;;;;;;;6.42;100.00;95420.72;10453758;28;20236;-75
2023/03/25 06:13:52;;;;;;;1.70;0.97;;;;;;;6.46;100.00;95423.00;10453858;28;20184;-75
2023/03/25 06:18:58;;;;;;;2.67;0.87;;;;;;;6.41;100.00;95437.31;10453427;28;20216;-75
2023/03/25 06:24:00;;;;;;;3.10;1.07;;;;;;;6.65;96.84;95421.88;10431517;28;20250;-75
2023/03/25 06:29:01;;;;;;;2.23;1.10;;;;;;;6.55;94.15;95416.81;10428287;28;20187;-75
2023/03/25 06:34:02;;;;;;;2.57;1.27;;;;;;;6.46;94.68;95426.41;10432029;28;20215;-75
2023/03/25 06:39:04;;;;;;;5.73;0.93;;;;;;;6.40;93.83;95435.69;10434466;28;20323;-75
2023/03/25 06:44:05;;;;;;;2.37;1.00;;;;;;;6.32;93.58;95440.06;10412479;28;20554;-75
2023/03/25 06:49:37;;;;;;;3.33;0.90;;;;;;;6.53;92.55;95439.59;10430115;28;20944;-75
2023/03/25 06:54:38;;;;;;;5.60;1.20;;;;;;;6.82;89.85;95415.66;10414133;28;20326;-75
2023/03/25 06:59:38;;;;;;;4.67;0.83;;;;;;;7.02;87.78;95404.91;10451356;28;20231;-75
2023/03/25 07:04:39;;;;;;;2.00;0.87;;;;;;;7.40;86.34;95398.09;10443544;28;20196;-75
2023/03/25 07:09:40;;;;;;;3.17;1.00;;;;;;;7.21;85.59;95388.06;10411384;28;20189;-75
2023/03/25 07:14:41;;;;;;;2.80;1.00;;;;;;;7.85;83.80;95378.31;10394249;28;20207;-75
2023/03/25 07:19:42;;;;;;;3.57;1.20;;;;;;;7.66;83.67;95383.97;10432884;28;20207;-75
2023/03/25 07:24:42;;;;;;;1.73;1.03;;;;;;;7.88;84.10;95402.44;10407927;28;20188;-75
2023/03/25 07:29:43;;;;;;;4.07;1.07;;;;;;;7.86;85.33;95421.66;10390659;28;20203;-75
2023/03/25 07:34:43;;;;;;;3.70;1.20;;;;;;;7.85;86.98;95430.44;10431568;28;20227;-76
2023/03/25 07:39:44;;;;;;;5.03;1.17;;;;;;;7.34;88.64;95447.47;10440105;28;20270;-75
2023/03/25 07:44:44;;;;;;;2.90;1.00;;;;;;;7.05;90.38;95467.06;10426395;28;20276;-75
2023/03/25 07:49:46;;;;;;;3.93;1.50;;;;;;;6.82;94.29;95490.34;10413027;28;20189;-75
2023/03/25 07:54:46;;;;;;;2.07;0.90;;;;;;;6.71;98.37;95497.50;10420116;28;20219;-76
2023/03/25 07:59:47;;;;;;;3.10;1.60;;;;;;;6.82;98.61;95474.72;10428564;28;20280;-76
2023/03/25 08:04:47;;;;;;;2.93;1.40;;;;;;;7.04;100.00;95487.06;10446405;28;20203;-75
2023/03/25 08:09:47;;;;;;;3.00;1.20;;;;;;;6.94;100.00;95497.66;10456462;28;20205;-76
2023/03/25 08:14:48;;;;;;;5.67;2.40;;;;;;;6.85;100.00;95524.66;10445476;28;20192;-76
2023/03/25 08:19:48;;;;;;;1.77;1.33;;;;;;;6.46;100.00;95543.47;10432779;28;20243;-77
2023/03/25 08:24:49;;;;;;;1.37;0.80;;;;;;;5.66;100.00;95577.59;10433131;28;20679;-79
2023/03/25 08:29:56;;;;;;;0.87;0.70;;;;;;;5.46;100.00;95574.41;10449882;28;20574;-76
2023/03/25 08:34:56;;;;;;;1.80;1.17;;;;;;;5.51;100.00;95559.16;10456340;28;20196;-76
2023/03/25 08:39:56;;;;;;;0.83;0.83;;;;;;;5.64;100.00;95559.56;10454333;28;20240;-75
2023/03/25 08:44:57;;;;;;;0.60;0.60;;;;;;;5.53;100.00;95559.84;10434821;28;20626;-76
2023/03/25 08:49:57;;;;;;;1.80;0.80;;;;;;;5.57;100.00;95555.97;10455697;28;20564;-75
2023/03/25 08:54:58;;;;;;;1.67;1.10;;;;;;;5.56;100.00;95564.75;10454877;28;20233;-75
2023/03/25 08:59:58;;;;;;;1.30;1.20;;;;;;;5.62;100.00;95558.09;10454693;28;20227;-75
2023/03/25 09:04:58;;;;;;;1.23;1.10;;;;;;;5.81;100.00;95562.25;10454907;28;20196;-75
2023/03/25 09:09:59;;;;;;;1.50;1.40;;;;;;;5.78;100.00;95553.00;10453611;28;20188;-75
2023/03/25 09:14:59;;;;;;;5.00;1.70;;;;;;;5.85;100.00;95564.41;10452838;28;20315;-76
2023/03/25 09:19:59;;;;;;;5.50;2.40;;;;;;;5.79;100.00;95567.63;10453425;28;20223;-76
2023/03/25 09:25:00;;;;;;;1.40;1.30;;;;;;;6.13;100.00;95568.59;10428653;28;20196;-75
2023/03/25 09:30:00;;;;;;;3.03;1.40;;;;;;;6.01;100.00;95555.88;10430097;28;20206;-76
2023/03/25 09:35:00;;;;;;;5.47;1.60;;;;;;;6.09;100.00;95551.69;10433240;28;20227;-75
2023/03/25 09:40:01;;;;;;;7.60;2.30;;;;;;;6.16;100.00;95547.50;10436887;28;20306;-75
2023/03/25 09:45:19;;;;;;;4.00;1.77;;;;;;;6.11;100.00;95552.34;10452346;28;20677;-76
2023/03/25 09:50:21;;;;;;;4.07;1.90;;;;;;;6.16;100.00;95547.50;10414540;28;20193;-76
2023/03/25 09:55:31;;;;;;;2.17;1.27;;;;;;;6.16;100.00;95547.50;10394397;28;20228;-75
2023/03/25 10:00:32;;;;;;;2.77;1.30;;;;;;;6.42;100.00;95531.78;10393614;28;20219;-75
2023/03/25 10:05:39;;;;;;;2.37;1.20;;;;;;;7.04;100.00;95528.72;10410604;28;20196;-75
2023/03/25 10:11:05;;;;;;;1.37;0.97;;;;;;;7.79;100.00;95514.56;10442960;28;20226;-76
2023/03/25 10:16:42;;;;;;;2.43;1.17;;;;;;;8.87;100.00;95496.53;10443136;28;20200;-75
2023/03/25 10:21:57;;;;;;;0.93;0.87;;;;;;;9.88;100.00;95460.34;10425696;28;20207;-77
2023/03/25 10:27:22;;;;;;;2.50;1.00;;;;;;;8.19;100.00;95486.69;10451100;28;20627;-76
2023/03/25 10:32:45;;;;;;;2.07;0.90;;;;;;;8.41;100.00;95466.00;10451972;28;20200;-76
2023/03/25 10:37:46;;;;;;;2.57;0.90;;;;;;;7.47;94.30;95434.69;10450878;28;20267;-76
2023/03/25 10:42:56;;;;;;;1.43;1.00;;;;;;;7.58;92.73;95428.31;10441407;28;20594;-77
2023/03/25 10:48:06;;;;;;;2.50;0.90;;;;;;;8.14;92.54;95433.41;10449852;28;20198;-76
2023/03/25 10:53:18;;;;;;;2.07;0.80;;;;;;;8.82;90.45;95415.28;10450584;28;20248;-76
2023/03/25 10:58:19;;;;;;;2.60;1.07;;;;;;;9.43;87.27;95395.03;10446716;28;20254;-77
2023/03/25 11:03:29;;;;;;;1.77;1.10;;;;;;;10.07;85.78;95414.47;10391905;28;20211;-77
2023/03/25 11:08:31;;;;;;;3.03;0.97;;;;;;;9.47;82.85;95379.81;10393783;28;20698;-76
2023/03/25 11:13:31;;;;;;;1.07;0.80;;;;;;;8.70;88.41;95452.25;10440707;28;20200;-75
2023/03/25 11:18:39;;;;;;;1.07;0.83;;;;;;;8.96;87.23;95417.13;10447993;28;20220;-76
2023/03/25 11:23:43;;;;;;;4.23;0.70;;;;;;;8.71;83.36;95377.34;10450423;28;20192;-75
2023/03/25 11:28:45;;;;;;;0.97;0.60;;;;;;;9.66;80.85;95367.94;10449524;28;20192;-77
2023/03/25 11:34:03;;;;;;;2.37;0.70;;;;;;;9.90;78.73;95366.81;10447654;28;20262;-76
2023/03/25 11:39:16;;;;;;;2.20;0.90;;;;;;;8.71;82.54;95395.63;10448720;28;20235;-76
2023/03/25 11:44:29;;;;;;;0.60;0.60;;;;;;;9.54;81.27;95366.78;10449227;28;20194;-76
2023/03/25 11:49:34;;;;;;;2.65;0.70;;;;;;;10.33;74.19;95284.88;10431920;28;20195;-76
2023/03/25 11:54:35;;;;;;;0.63;0.60;;;;;;;11.04;72.91;95292.59;10448265;28;20729;-76
2023/03/25 11:59:43;;;;;;;2.47;0.90;;;;;;;11.47;71.10;95272.34;10449675;28;20273;-76
2023/03/25 12:05:00;;;;;;;1.27;0.70;;;;;;;10.49;71.42;95268.91;10449337;28;20216;-76
2023/03/25 12:10:06;;;;;;;1.88;0.80;;;;;;;10.14;70.61;95263.59;10448961;28;20195;-76
2023/03/25 12:15:22;;;;;;;1.03;0.70;;;;;;;10.94;69.77;95255.44;10449150;28;20196;-76
2023/03/25 12:20:36;;;;;;;1.90;1.07;;;;;;;10.89;69.40;95242.91;10449205;28;20227;-76
2023/03/25 12:25:58;;;;;;;3.22;1.30;;;;;;;11.33;66.23;95206.78;10430678;28;20246;-76
2023/03/25 12:31:22;;;;;;;1.70;0.73;;;;;;;10.25;70.49;95259.63;10448910;28;20687;-75
2023/03/25 12:36:37;;;;;;;0.98;0.60;;;;;;;12.35;65.38;95188.25;10448477;28;20224;-76
2023/03/25 12:42:15;;;;;;;0.60;0.60;;;;;;;10.36;65.24;95166.72;10447258;28;20222;-75
2023/03/25 12:47:27;;;;;;;1.97;0.90;;;;;;;8.91;70.20;95252.28;10456065;28;20196;-76
2023/03/25 12:52:37;;;;;;;0.70;0.70;;;;;;;9.32;73.80;95311.84;10455325;28;20197;-75
2023/03/25 12:58:00;;;;;;;3.10;0.87;;;;;;;9.99;71.00;95266.28;10453873;28;20212;-76
2023/03/25 13:03:22;;;;;;;1.17;0.77;;;;;;;10.29;68.67;95229.47;10454172;28;20282;-75
2023/03/25 13:08:29;;;;;;;1.27;0.80;;;;;;;10.76;68.72;95234.19;10453895;28;20199;-75
2023/03/25 13:13:31;;;;;;;1.23;0.80;;;;;;;9.52;70.14;95228.44;10437278;28;20199;-75
2023/03/25 13:18:36;;;;;;;3.17;0.90;;;;;;;10.49;69.83;95234.84;10437026;28;20250;-75
2023/03/25 13:23:37;;;;;;;2.93;0.97;;;;;;;9.35;72.48;95258.44;10454186;28;20195;-75
2023/03/25 13:28:45;;;;;;;2.00;0.93;;;;;;;9.06;74.28;95296.69;10454096;28;20192;-75
2023/03/25 13:34:18;;;;;;;3.40;0.90;;;;;;;8.96;74.95;95291.75;10453133;28;20682;-76
2023/03/25 13:39:22;;;;;;;3.80;1.40;;;;;;;9.29;76.70;95296.53;10435200;28;20236;-75
2023/03/25 13:44:26;;;;;;;1.43;0.87;;;;;;;9.00;77.20;95286.94;10452682;28;20192;-76
2023/03/25 13:49:32;;;;;;;4.50;1.20;;;;;;;9.48;75.09;95266.41;10453412;28;20190;-75
2023/03/25 13:55:01;;;;;;;1.63;1.03;;;;;;;9.46;73.62;95245.69;10451767;28;20616;-75
2023/03/25 14:00:21;;;;;;;2.43;0.80;;;;;;;9.53;72.16;95224.81;10453651;28;20757;-76
2023/03/25 14:05:59;;;;;;;7.30;1.57;;;;;;;10.03;69.39;95195.25;10451281;28;20274;-75
2023/03/25 14:11:26;;;;;;;7.43;2.10;;;;;;;10.87;68.27;95191.72;10452528;28;20524;-76
2023/03/25 14:16:30;;;;;;;6.80;2.30;;;;;;;10.59;66.71;95152.53;10452659;28;20212;-75
2023/03/25 14:21:34;;;;;;;3.67;1.40;;;;;;;10.89;66.13;95164.31;10451749;28;20258;-76
2023/03/25 14:26:36;;;;;;;5.00;1.33;;;;;;;10.60;64.68;95148.91;10450506;28;20192;-76
2023/03/25 14:31:36;;;;;;;2.60;1.30;;;;;;;9.80;67.71;95215.41;10452395;28;20184;-77
2023/03/25 14:36:39;;;;;;;5.03;1.37;;;;;;;8.59;73.47;95330.00;10450820;28;20228;-75
2023/03/25 14:41:56;;;;;;;1.57;0.80;;;;;;;5.60;100.00;95508.88;10451430;28;20203;-77
2023/03/25 14:47:02;;;;;;;1.27;0.90;;;;;;;5.44;100.00;95501.03;10450662;28;20655;-77
2023/03/25 14:52:03;;;;;;;2.90;0.80;;;;;;;5.39;100.00;95488.50;10449606;28;20742;-77
2023/03/25 14:57:24;;;;;;;2.27;1.03;;;;;;;5.87;100.00;95457.69;10448796;28;20524;-76
2023/03/25 15:02:26;;;;;;;0.63;0.63;;;;;;;5.97;100.00;95444.56;10450854;28;20187;-74
2023/03/25 15:07:46;;;;;;;0.63;0.60;;;;;;;7.14;100.00;95396.56;10449885;28;20230;-76
2023/03/25 15:12:51;;;;;;;1.50;1.10;;;;;;;8.91;94.02;95347.13;10450488;28;20261;-76
2023/03/25 15:17:51;;;;;;;0.70;0.60;;;;;;;9.27;82.58;95285.47;10431697;28;20224;-76
2023/03/25 15:23:18;;;;;;;0.97;0.77;;;;;;;8.99;78.36;95243.53;10448898;28;20241;-76
2023/03/25 15:28:31;;;;;;;0.97;0.87;;;;;;;7.84;77.43;95243.72;10420633;28;20376;-75
2023/03/25 15:34:09;;;;;;;1.30;1.10;;;;;;;8.09;79.82;95261.78;10448903;28;20187;-75
2023/03/25 15:39:36;;;;;;;2.17;0.90;;;;;;;7.93;80.50;95295.81;10444033;28;20231;-76
2023/03/25 15:44:49;;;;;;;1.43;0.90;;;;;;;7.46;82.03;95318.44;10432130;28;20203;-76
2023/03/25 15:50:25;;;;;;;1.40;1.03;;;;;;;8.91;80.63;95328.84;10420297;28;20192;-76
2023/03/25 15:55:30;;;;;;;2.03;1.10;;;;;;;9.13;75.98;95284.50;10390365;28;20208;-75
2023/03/25 16:00:37;;;;;;;1.43;0.80;;;;;;;6.96;82.78;95369.91;10408113;28;20311;-75
2023/03/25 16:05:44;;;;;;;2.83;1.43;;;;;;;7.48;85.04;95397.25;10389909;28;20568;-75
2023/03/25 16:10:45;;;;;;;3.90;1.20;;;;;;;8.67;80.59;95347.38;10408124;28;20241;-75
2023/03/25 16:15:45;;;;;;;2.17;1.50;;;;;;;7.86;81.30;95363.50;10407678;28;20603;-76
2023/03/25 16:20:46;;;;;;;1.37;1.00;;;;;;;7.11;81.66;95365.63;10414253;28;20224;-76
2023/03/25 16:25:48;;;;;;;1.63;1.27;;;;;;;6.71;84.82;95410.81;10415089;28;20192;-77
2023/03/25 16:30:51;;;;;;;3.50;1.60;;;;;;;6.70;85.28;95404.78;10397981;28;20696;-76
2023/03/25 16:35:58;;;;;;;3.23;1.47;;;;;;;6.46;86.69;95404.81;10415248;28;20192;-76
2023/03/25 16:41:06;;;;;;;4.67;1.70;;;;;;;6.43;88.15;95404.16;10414972;28;20783;-75
2023/03/25 16:46:08;;;;;;;1.20;1.10;;;;;;;6.30;89.35;95410.81;10413877;28;20189;-76
2023/03/25 16:51:22;;;;;;;4.07;1.20;;;;;;;6.09;89.95;95413.88;10413183;28;20199;-75
2023/03/25 16:56:28;;;;;;;3.13;1.30;;;;;;;6.13;90.42;95413.41;10396507;28;20657;-76
2023/03/25 17:01:32;;;;;;;1.20;0.80;;;;;;;6.01;90.59;95423.28;10413797;28;20271;-76
2023/03/25 17:06:34;;;;;;;1.40;1.00;;;;;;;5.94;91.76;95430.09;10413277;28;20669;-76
2023/03/25 17:11:34;;;;;;;2.70;1.00;;;;;;;5.86;92.42;95417.88;10396287;28;20192;-75
2023/03/25 17:16:35;;;;;;;2.00;1.17;;;;;;;5.82;92.05;95410.53;10394722;28;20216;-76
2023/03/25 17:21:37;;;;;;;3.13;1.57;;;;;;;5.89;91.79;95427.13;10413481;28;20207;-75
2023/03/25 17:26:54;;;;;;;7.87;2.93;;;;;;;5.94;91.94;95422.28;10395290;28;20184;-76
2023/03/25 17:31:57;;;;;;;4.67;2.60;;;;;;;5.89;92.43;95411.53;10393578;28;20215;-75
2023/03/25 17:37:02;;;;;;;2.43;1.30;;;;;;;5.87;92.23;95421.28;10412243;28;20697;-76
2023/03/25 17:42:07;;;;;;;2.67;1.37;;;;;;;5.88;92.04;95413.34;10394439;28;20311;-75
2023/03/25 17:47:12;;;;;;;1.97;1.13;;;;;;;5.88;91.34;95425.50;10411924;28;20641;-74
2023/03/25 17:52:12;;;;;;;2.93;1.67;;;;;;;5.84;91.37;95416.41;10394168;28;20188;-76
2023/03/25 17:57:15;;;;;;;1.83;1.60;;;;;;;5.85;91.44;95418.84;10411058;28;20235;-76
2023/03/25 18:02:16;;;;;;;8.83;4.07;;;;;;;5.77;92.18;95426.63;10394001;28;20215;-75
2023/03/25 18:07:20;;;;;;;3.97;1.30;;;;;;;5.92;92.06;95424.22;10411957;28;20199;-76
2023/03/25 18:12:20;;;;;;;2.77;1.77;;;;;;;5.82;92.13;95426.97;10411385;28;20279;-76
2023/03/25 18:17:20;;;;;;;1.90;1.40;;;;;;;5.80;92.87;95420.28;10410906;28;20808;-75
2023/03/25 18:22:21;;;;;;;4.43;2.40;;;;;;;5.79;93.45;95423.84;10411394;28;20276;-76
2023/03/25 18:27:21;;;;;;;1.90;1.70;;;;;;;5.83;93.57;95440.78;10410023;28;20200;-75
2023/03/25 18:32:21;;;;;;;8.37;3.30;;;;;;;5.94;93.33;95461.28;10411189;28;20664;-75
2023/03/25 18:37:22;;;;;;;2.43;1.43;;;;;;;5.99;92.98;95461.66;10409853;28;20236;-75
2023/03/25 18:42:22;;;;;;;3.90;1.50;;;;;;;6.06;93.48;95467.84;10409210;28;20966;-76
2023/03/25 18:47:23;;;;;;;5.07;1.80;;;;;;;6.13;93.00;95470.59;10409670;28;20185;-76
2023/03/25 18:52:23;;;;;;;2.57;1.20;;;;;;;6.18;94.16;95462.31;10409758;28;20674;-75
2023/03/25 18:57:24;;;;;;;2.30;1.27;;;;;;;6.47;93.35;95461.88;10408917;28;20313;-76
2023/03/25 19:02:24;;;;;;;1.80;1.40;;;;;;;6.38;92.41;95471.44;10409841;28;20196;-75
2023/03/25 19:07:24;;;;;;;2.13;1.07;;;;;;;6.39;91.26;95465.28;10409428;28;20719;-75
2023/03/25 19:12:25;;;;;;;1.87;1.10;;;;;;;6.42;91.23;95451.94;10408982;28;20774;-75
2023/03/25 19:17:25;;;;;;;3.30;1.20;;;;;;;6.23;92.44;95466.09;10408373;28;20220;-75
2023/03/25 19:22:28;;;;;;;2.17;0.93;;;;;;;6.11;92.97;95466.53;10408916;28;20217;-75
2023/03/25 19:27:28;;;;;;;1.93;1.10;;;;;;;6.15;93.31;95463.44;10408073;28;20197;-75
2023/03/25 19:32:29;;;;;;;3.17;1.10;;;;;;;6.14;92.86;95459.25;10408483;28;20680;-76
2023/03/25 19:37:34;;;;;;;2.53;1.10;;;;;;;6.20;93.01;95465.56;10408526;28;20227;-75
2023/03/25 19:42:34;;;;;;;2.30;0.90;;;;;;;6.38;93.00;95468.03;10407946;28;20285;-75
2023/03/25 19:47:40;;;;;;;2.37;1.23;;;;;;;6.47;93.60;95482.69;10408046;28;20184;-75
2023/03/25 19:52:41;;;;;;;3.27;1.50;;;;;;;6.59;94.23;95485.78;10408831;28;20197;-75
2023/03/25 19:57:42;;;;;;;4.97;1.10;;;;;;;6.62;94.78;95501.06;10416132;28;20228;-75
2023/03/25 20:02:45;;;;;;;5.40;1.17;;;;;;;6.06;100.00;95571.84;10398540;28;20637;-79
2023/03/25 20:07:47;;;;;;;2.97;1.20;;;;;;;4.88;100.00;95676.97;10415944;28;20185;-79
2023/03/25 20:12:48;;;;;;;2.60;1.20;;;;;;;4.12;100.00;95564.81;10398474;28;20237;-80
2023/03/25 20:17:50;;;;;;;0.80;0.70;;;;;;;4.23;100.00;95533.50;10415846;28;20723;-78
2023/03/25 20:22:51;;;;;;;0.80;0.80;;;;;;;4.21;100.00;95503.50;10415688;28;20692;-79
2023/03/25 20:27:51;;;;;;;0.90;0.90;;;;;;;4.01;100.00;95513.19;10414647;28;20268;-76
2023/03/25 20:32:51;;;;;;;2.00;0.93;;;;;;;3.98;100.00;95508.28;10415787;28;20194;-75
2023/03/25 20:37:52;;;;;;;0.80;0.70;;;;;;;4.05;100.00;95517.91;10414235;28;20238;-75
2023/03/25 20:42:52;;;;;;;1.33;1.00;;;;;;;4.43;100.00;95507.44;10415220;28;20215;-76
2023/03/25 20:47:52;;;;;;;4.10;1.70;;;;;;;4.67;100.00;95503.44;10414215;28;20664;-75
2023/03/25 20:52:53;;;;;;;3.27;1.23;;;;;;;4.99;100.00;95488.13;10414587;28;20675;-76
2023/03/25 20:57:53;;;;;;;3.50;1.30;;;;;;;5.09;100.00;95476.81;10413816;28;20691;-75
2023/03/25 21:02:54;;;;;;;4.90;1.50;;;;;;;4.93;100.00;95482.69;10414417;28;20283;-75
2023/03/25 21:07:54;;;;;;;4.20;1.37;;;;;;;4.83;100.00;95485.41;10396138;28;20242;-75
2023/03/25 21:12:55;;;;;;;3.40;1.43;;;;;;;4.71;100.00;95479.63;10413927;28;20193;-76
2023/03/25 21:17:55;;;;;;;3.53;1.40;;;;;;;4.98;100.00;95457.94;10413250;28;20673;-75
2023/03/25 21:22:57;;;;;;;2.87;1.50;;;;;;;5.00;100.00;95468.16;10412390;28;20192;-76
2023/03/25 21:28:00;;;;;;;5.80;1.67;;;;;;;5.09;100.00;95474.22;10412967;28;20664;-77
2023/03/25 21:33:00;;;;;;;6.27;1.63;;;;;;;5.22;100.00;95482.38;10413418;28;20200;-75
2023/03/25 21:38:01;;;;;;;2.93;1.50;;;;;;;5.56;100.00;95472.97;10411756;28;20278;-76
2023/03/25 21:43:01;;;;;;;6.10;1.73;;;;;;;5.56;100.00;95458.22;10395648;28;20216;-75
2023/03/25 21:48:04;;;;;;;5.20;1.43;;;;;;;5.51;100.00;95452.66;10411615;28;20211;-75
2023/03/25 21:53:04;;;;;;;8.07;1.83;;;;;;;5.56;100.00;95452.19;10412033;28;20227;-76
2023/03/25 21:58:05;;;;;;;5.30;1.70;;;;;;;5.70;100.00;95436.84;10411888;28;20618;-75
2023/03/25 22:03:10;;;;;;;5.83;1.70;;;;;;;5.85;100.00;95439.66;10411442;28;20267;-76
2023/03/25 22:08:11;;;;;;;6.80;1.47;;;;;;;5.89;100.00;95440.94;10411535;28;20184;-75
2023/03/25 22:13:11;;;;;;;5.83;1.40;;;;;;;5.87;100.00;95439.50;10411675;28;20683;-75
2023/03/25 22:18:11;;;;;;;7.37;2.37;;;;;;;5.83;100.00;95435.56;10409419;28;20700;-75
2023/03/25 22:23:12;;;;;;;4.83;1.70;;;;;;;5.75;100.00;95462.34;10411511;28;20749;-75
2023/03/25 22:28:12;;;;;;;5.53;1.30;;;;;;;5.69;100.00;95466.38;10393079;28;20184;-76
2023/03/25 22:33:13;;;;;;;3.63;1.27;;;;;;;5.48;100.00;95478.97;10393157;28;20253;-75
2023/03/25 22:38:13;;;;;;;4.10;1.63;;;;;;;5.40;100.00;95476.34;10410056;28;20232;-75
2023/03/25 22:43:14;;;;;;;4.80;1.53;;;;;;;5.41;100.00;95472.78;10410746;28;20216;-75
2023/03/25 22:48:14;;;;;;;4.13;1.30;;;;;;;5.31;100.00;95463.31;10391862;28;20223;-75
2023/03/25 22:53:15;;;;;;;3.33;1.30;;;;;;;5.21;100.00;95473.00;10410239;28;20216;-75
2023/03/25 22:58:15;;;;;;;3.30;1.30;;;;;;;5.09;100.00;95476.81;10409400;28;20285;-75
2023/03/25 23:03:16;;;;;;;4.63;1.40;;;;;;;4.78;100.00;95454.72;10409744;28;20220;-75
2023/03/25 23:08:16;;;;;;;2.57;1.13;;;;;;;4.74;100.00;95455.19;10409449;28;20188;-75
2023/03/25 23:13:17;;;;;;;2.97;1.40;;;;;;;4.63;100.00;95451.03;10409607;28;20196;-75
2023/03/25 23:18:17;;;;;;;5.20;1.30;;;;;;;4.60;100.00;95453.94;10408988;28;20220;-75
2023/03/25 23:23:21;;;;;;;3.30;2.20;;;;;;;4.50;100.00;95456.59;10409103;28;20188;-76
2023/03/25 23:28:21;;;;;;;5.43;1.57;;;;;;;4.60;100.00;95462.53;10407859;28;20373;-75
2023/03/25 23:33:22;;;;;;;6.93;1.43;;;;;;;4.69;100.00;95467.78;10408671;28;20288;-75
2023/03/25 23:38:23;;;;;;;2.17;1.50;;;;;;;4.80;100.00;95464.94;10408094;28;20240;-76
2023/03/25 23:43:24;;;;;;;4.27;1.50;;;;;;;5.08;100.00;95473.38;10408882;28;20236;-75
2023/03/25 23:48:25;;;;;;;9.03;1.90;;;;;;;5.28;100.00;95461.03;10390449;28;20267;-75